createdAt,value
2019-02-09T00:04:18.398Z,0.56
2019-02-09T00:09:27.626Z,1.04
2019-02-09T00:14:37.067Z,0.43
2019-02-09T00:19:46.243Z,0.64
2019-02-09T00:24:55.475Z,0.84
2019-02-09T00:30:04.671Z,0.68
2019-02-09T00:35:13.903Z,0.50
2019-02-09T00:40:23.124Z,0.49
2019-02-09T00:45:32.370Z,0.57
2019-02-09T00:50:41.736Z,0.55
2019-02-09T00:55:50.976Z,0.69
2019-02-09T01:01:00.341Z,0.65
2019-02-09T01:06:09.585Z,0.61
2019-02-09T01:11:18.882Z,0.69
2019-02-09T01:16:28.199Z,0.68
2019-02-09T01:21:37.535Z,0.65
2019-02-09T01:26:46.802Z,0.65
2019-02-09T01:31:56.157Z,0.72
2019-02-09T01:37:05.332Z,0.53
2019-02-09T01:42:14.523Z,0.55
2019-02-09T01:47:23.675Z,0.77
2019-02-09T01:52:32.870Z,0.51
2019-02-09T01:57:42.276Z,0.33
2019-02-09T02:02:51.410Z,0.60
2019-02-09T02:08:00.694Z,0.78
2019-02-09T02:13:09.923Z,0.53
2019-02-09T02:18:19.260Z,0.57
2019-02-09T02:23:28.554Z,0.75
2019-02-09T02:28:37.764Z,0.51
2019-02-09T02:33:47.022Z,0.43
2019-02-09T02:38:56.233Z,0.68
2019-02-09T02:44:05.390Z,0.40
2019-02-09T02:49:14.724Z,0.49
2019-02-09T02:54:23.891Z,0.66
2019-02-09T02:59:33.178Z,0.45
2019-02-09T03:04:42.441Z,0.43
2019-02-09T03:09:51.710Z,0.65
2019-02-09T03:15:00.926Z,0.41
2019-02-09T03:20:10.214Z,0.45
2019-02-09T03:25:19.492Z,0.48
2019-02-09T03:30:28.750Z,0.55
2019-02-09T03:35:37.957Z,0.45
2019-02-09T03:40:47.264Z,0.66
2019-02-09T03:45:56.476Z,0.56
2019-02-09T03:51:05.941Z,0.62
2019-02-09T03:56:15.159Z,0.53
2019-02-09T04:01:24.411Z,0.60
2019-02-09T04:06:33.800Z,0.38
2019-02-09T04:11:43.058Z,0.42
2019-02-09T04:16:52.400Z,0.58
2019-02-09T04:22:01.614Z,0.34
2019-02-09T04:27:10.830Z,0.50
2019-02-09T04:32:19.978Z,0.46
2019-02-09T04:37:29.363Z,0.53
2019-02-09T04:42:38.629Z,0.54
2019-02-09T04:47:47.799Z,0.59
2019-02-09T04:52:56.946Z,0.35
2019-02-09T04:58:06.265Z,0.50
2019-02-09T05:03:15.519Z,0.64
2019-02-09T05:08:24.887Z,0.95
2019-02-09T05:13:34.131Z,0.37
2019-02-09T05:18:43.424Z,0.46
2019-02-09T05:23:52.682Z,0.75
2019-02-09T05:29:02.094Z,0.36
2019-02-09T05:34:11.278Z,0.38
2019-02-09T05:39:20.582Z,0.76
2019-02-09T05:44:29.770Z,0.44
2019-02-09T05:49:39.210Z,0.38
2019-02-09T05:54:48.419Z,0.52
2019-02-09T05:59:57.638Z,0.27
2019-02-09T06:05:07.090Z,0.42
2019-02-09T06:10:16.483Z,0.49
2019-02-09T06:15:25.790Z,0.41
2019-02-09T06:20:35.137Z,0.46
2019-02-09T06:25:44.366Z,0.33
2019-02-09T06:30:53.654Z,0.43
2019-02-09T06:36:03.000Z,0.44
2019-02-09T06:41:12.246Z,0.42
2019-02-09T06:46:21.501Z,0.36
2019-02-09T06:51:30.842Z,0.42
2019-02-09T06:56:40.114Z,0.46
2019-02-09T07:01:49.368Z,0.43
2019-02-09T07:06:58.625Z,0.47
2019-02-09T07:12:07.954Z,0.44
2019-02-09T07:17:17.109Z,0.36
2019-02-09T07:22:26.574Z,0.72
2019-02-09T07:27:35.778Z,0.65
2019-02-09T07:32:45.034Z,0.68
2019-02-09T07:37:54.237Z,0.59
2019-02-09T07:43:03.632Z,0.56
2019-02-09T07:48:12.773Z,0.58
2019-02-09T07:53:21.994Z,0.53
2019-02-09T07:58:31.174Z,0.71
2019-02-09T08:03:40.407Z,0.86
2019-02-09T08:08:49.681Z,0.69
2019-02-09T08:13:58.834Z,1.08
2019-02-09T08:19:08.156Z,0.60
2019-02-09T08:24:17.322Z,0.83
2019-02-09T08:29:26.521Z,0.60
2019-02-09T08:34:35.694Z,0.78
2019-02-09T08:39:44.923Z,0.51
2019-02-09T08:44:54.074Z,0.50
2019-02-09T08:50:03.295Z,0.53
2019-02-09T08:55:12.486Z,0.69
2019-02-09T09:00:21.738Z,0.90
2019-02-09T09:05:30.900Z,0.50
2019-02-09T09:10:40.172Z,0.61
2019-02-09T09:15:49.386Z,0.85
2019-02-09T09:20:58.784Z,0.70
2019-02-09T09:26:07.967Z,0.69
2019-02-09T09:31:17.286Z,0.81
2019-02-09T09:36:26.478Z,1.00
2019-02-09T09:41:35.795Z,1.19
2019-02-09T09:46:47.972Z,0.83
2019-02-09T09:51:47.294Z,0.70
2019-02-09T09:56:56.562Z,0.82
2019-02-09T10:02:05.758Z,0.69
2019-02-09T10:07:15.011Z,1.37
2019-02-09T10:12:24.417Z,1.22
2019-02-09T10:17:33.664Z,0.89
2019-02-09T10:22:42.956Z,0.93
2019-02-09T10:27:52.125Z,0.92
2019-02-09T10:33:01.442Z,0.56
2019-02-09T10:38:10.688Z,0.67
2019-02-09T10:43:20.035Z,0.75
2019-02-09T10:48:29.330Z,0.63
2019-02-09T10:53:38.658Z,0.91
2019-02-09T10:58:47.855Z,0.46
2019-02-09T11:03:57.113Z,0.53
2019-02-09T11:09:06.439Z,0.41
2019-02-09T11:14:15.626Z,0.44
2019-02-09T11:19:24.887Z,0.49
2019-02-09T11:24:34.120Z,0.47
2019-02-09T11:29:43.426Z,0.62
2019-02-09T11:34:52.601Z,0.57
2019-02-09T11:40:01.898Z,0.59
2019-02-09T11:45:11.605Z,0.34
2019-02-09T11:50:21.461Z,0.45
2019-02-09T11:55:30.688Z,0.58
2019-02-09T12:00:39.967Z,0.43
2019-02-09T12:05:50.435Z,0.55
2019-02-09T12:10:49.839Z,0.36
2019-02-09T12:15:59.109Z,0.36
2019-02-09T12:21:08.431Z,0.47
2019-02-09T12:26:17.645Z,0.68
2019-02-09T12:31:26.965Z,0.37
2019-02-09T12:36:36.152Z,0.49
2019-02-09T12:41:45.399Z,0.26
2019-02-09T12:46:54.650Z,0.50
2019-02-09T12:52:03.838Z,0.34
2019-02-09T12:57:13.018Z,0.44
2019-02-09T13:02:22.240Z,0.53
2019-02-09T13:07:31.483Z,0.43
2019-02-09T13:12:40.635Z,0.51
2019-02-09T13:17:49.858Z,0.34
2019-02-09T13:22:59.024Z,0.30
2019-02-09T13:28:13.195Z,0.50
2019-02-09T13:33:12.468Z,0.36
2019-02-09T13:38:29.263Z,0.36
2019-02-09T13:43:30.594Z,0.55
2019-02-09T13:48:29.587Z,0.35
2019-02-09T13:53:38.865Z,0.45
2019-02-09T13:58:52.749Z,0.28
2019-02-09T14:03:51.822Z,0.25
2019-02-09T14:09:01.210Z,0.30
2019-02-09T14:14:10.580Z,0.46
2019-02-09T14:19:20.207Z,0.36
2019-02-09T14:24:29.601Z,0.28
2019-02-09T14:29:38.818Z,0.29
2019-02-09T14:34:48.103Z,0.34
2019-02-09T14:39:57.403Z,0.40
2019-02-09T14:45:06.722Z,0.33
2019-02-09T14:50:16.122Z,0.25
2019-02-09T14:55:25.493Z,0.34
2019-02-09T15:00:34.902Z,0.39
2019-02-09T15:05:44.391Z,0.48
2019-02-09T15:10:53.806Z,0.25
2019-02-09T15:16:03.292Z,0.29
2019-02-09T15:21:12.540Z,0.31
2019-02-09T15:26:23.572Z,0.34
2019-02-09T15:31:22.952Z,0.33
2019-02-09T15:36:32.294Z,0.31
2019-02-09T15:41:41.706Z,0.43
2019-02-09T15:46:51.216Z,0.28
2019-02-09T15:52:00.479Z,0.33
2019-02-09T15:57:09.793Z,0.40
2019-02-09T16:02:19.354Z,0.74
2019-02-09T16:07:28.544Z,0.23
2019-02-09T16:12:37.928Z,0.28
2019-02-09T16:17:47.342Z,0.26
2019-02-09T16:22:56.869Z,0.30
2019-02-09T16:28:06.120Z,0.49
2019-02-09T16:33:15.675Z,0.28
2019-02-09T16:38:25.233Z,0.30
2019-02-09T16:43:34.492Z,0.39
2019-02-09T16:48:43.899Z,0.57
2019-02-09T16:53:53.250Z,0.22
2019-02-09T16:59:02.715Z,0.23
2019-02-09T17:04:12.018Z,0.33
2019-02-09T17:09:21.409Z,0.28
2019-02-09T17:14:35.015Z,0.39
2019-02-09T17:19:30.778Z,0.32
2019-02-09T17:24:39.998Z,0.27
2019-02-09T17:29:49.454Z,0.31
2019-02-09T17:34:58.684Z,0.43
2019-02-09T17:40:07.938Z,0.34
2019-02-09T17:45:17.160Z,0.45
2019-02-09T17:50:26.449Z,0.38
2019-02-09T17:55:35.642Z,0.58
2019-02-09T18:00:44.899Z,0.54
2019-02-09T18:05:54.097Z,0.36
2019-02-09T18:11:03.406Z,0.47
2019-02-09T18:16:12.600Z,0.46
2019-02-09T18:21:21.881Z,0.75
2019-02-09T18:26:31.207Z,0.53
2019-02-09T18:31:40.426Z,0.44
2019-02-09T18:36:49.722Z,0.42
2019-02-09T18:41:59.031Z,0.59
2019-02-09T18:47:08.182Z,0.50
2019-02-09T18:52:17.403Z,0.50
2019-02-09T18:57:26.586Z,0.44
2019-02-09T19:02:38.465Z,0.39
2019-02-09T19:07:44.753Z,0.55
2019-02-09T19:12:54.072Z,0.35
2019-02-09T19:18:03.287Z,0.38
2019-02-09T19:23:12.710Z,0.55
2019-02-09T19:28:21.883Z,0.72
2019-02-09T19:33:31.073Z,0.62
2019-02-09T19:38:40.261Z,0.48
2019-02-09T19:43:49.540Z,0.36
2019-02-09T19:48:58.692Z,0.45
2019-02-09T19:54:07.888Z,0.64
2019-02-09T19:59:17.074Z,0.37
2019-02-09T20:04:26.326Z,0.57
2019-02-09T20:09:35.531Z,0.59
2019-02-09T20:14:44.733Z,0.88
2019-02-09T20:19:53.887Z,0.71
2019-02-09T20:25:03.194Z,1.00
2019-02-09T20:30:12.465Z,0.81
2019-02-09T20:35:27.592Z,1.52
2019-02-09T20:40:30.429Z,0.96
2019-02-09T20:45:39.718Z,0.81
2019-02-09T20:50:48.921Z,0.82
2019-02-09T20:55:58.178Z,1.10
2019-02-09T21:01:07.401Z,0.86
2019-02-09T21:06:16.663Z,0.64
2019-02-09T21:11:25.928Z,0.66
2019-02-09T21:16:35.160Z,0.80
2019-02-09T21:21:44.428Z,0.59
2019-02-09T21:26:53.603Z,0.82
2019-02-09T21:32:02.869Z,0.35
2019-02-09T21:37:12.142Z,0.35
2019-02-09T21:42:21.371Z,0.47
2019-02-09T21:47:30.662Z,0.28
2019-02-09T21:52:39.994Z,0.59
2019-02-09T21:57:49.150Z,0.51
2019-02-09T22:02:58.409Z,0.49
2019-02-09T22:08:07.560Z,0.58
2019-02-09T22:13:16.796Z,0.48
2019-02-09T22:18:26.032Z,0.44
2019-02-09T22:23:35.233Z,0.55
2019-02-09T22:28:44.679Z,0.47
2019-02-09T22:33:53.910Z,0.53
2019-02-09T22:39:03.107Z,0.51
2019-02-09T22:44:12.431Z,0.83
2019-02-09T22:49:21.647Z,0.54
2019-02-09T22:54:30.936Z,0.61
2019-02-09T22:59:40.309Z,1.60
2019-02-09T23:04:49.548Z,1.52
2019-02-09T23:09:58.894Z,1.31
2019-02-09T23:15:08.075Z,0.98
2019-02-09T23:20:17.363Z,0.81
2019-02-09T23:25:26.614Z,0.66
2019-02-09T23:30:35.802Z,0.63
2019-02-09T23:35:45.147Z,0.96
2019-02-09T23:40:54.394Z,1.18
2019-02-09T23:46:03.650Z,0.83
2019-02-09T23:51:12.902Z,0.60
2019-02-09T23:56:22.138Z,0.78
